Terminal Aerodrome Forecast
Issued by NWS

Home | Current Version | Previous Version | Text Only | Print | Product List | Glossary On
Versions: 1 2 3 4 5 6 7 8 9 10 11 12 13 14 15 16 17 18 19 20 21 22
000
FTUS41 KBGM 010300 AAB
TAFITH
TAF AMD
KITH 010345Z 0104/0124 27004KT P6SM OVC025
     FM010700 27005KT P6SM OVC015
     FM011600 34007KT P6SM SCT015 OVC050
     FM012100 29007KT 1 1/2SM -SN OVC015=

USA.gov is the U.S. government's official web portal to all federal, state and local government web resources and services.